createdAt,value
2016-06-26T00:00:56.174Z,0
2016-06-26T00:01:56.164Z,0
2016-06-26T00:02:56.175Z,0
2016-06-26T00:03:56.241Z,0
2016-06-26T00:04:56.431Z,0
2016-06-26T00:05:56.303Z,0
2016-06-26T00:06:56.357Z,0
2016-06-26T00:07:56.484Z,0
2016-06-26T00:08:56.430Z,0
2016-06-26T00:09:56.615Z,0
2016-06-26T00:10:56.657Z,0
2016-06-26T00:11:56.685Z,0
2016-06-26T00:12:56.758Z,0
2016-06-26T00:13:57.059Z,0
2016-06-26T00:14:56.907Z,0
2016-06-26T00:15:56.833Z,0
2016-06-26T00:16:56.899Z,0
2016-06-26T00:17:56.908Z,0
2016-06-26T00:18:57.029Z,0
2016-06-26T00:19:57.035Z,0
2016-06-26T00:20:57.064Z,0
2016-06-26T00:21:57.087Z,0
2016-06-26T00:22:57.140Z,0
2016-06-26T00:23:57.222Z,0
2016-06-26T00:24:57.196Z,0
2016-06-26T00:25:57.251Z,0
2016-06-26T00:26:57.310Z,0
2016-06-26T00:27:57.342Z,0
2016-06-26T00:28:57.268Z,0
2016-06-26T00:29:57.380Z,0
2016-06-26T00:30:57.426Z,0
2016-06-26T00:31:57.380Z,0
2016-06-26T00:32:57.585Z,0
2016-06-26T00:33:57.627Z,0
2016-06-26T00:34:57.562Z,0
2016-06-26T00:35:57.708Z,0
2016-06-26T00:36:57.638Z,0
2016-06-26T00:37:57.673Z,0
2016-06-26T00:38:58.376Z,0
2016-06-26T00:39:57.858Z,0
2016-06-26T00:40:57.802Z,0
2016-06-26T00:41:57.909Z,0
2016-06-26T00:42:57.860Z,0
2016-06-26T00:43:57.909Z,0
2016-06-26T00:44:57.987Z,0
2016-06-26T00:45:58.113Z,0
2016-06-26T00:46:58.065Z,0
2016-06-26T00:47:58.065Z,0
2016-06-26T00:48:58.131Z,0
2016-06-26T00:49:58.274Z,0
2016-06-26T00:50:58.291Z,0
2016-06-26T00:51:58.221Z,0
2016-06-26T00:52:58.354Z,0
2016-06-26T00:53:58.368Z,0
2016-06-26T00:54:58.351Z,0
2016-06-26T00:55:58.530Z,0
2016-06-26T00:56:58.528Z,0
2016-06-26T00:57:58.474Z,0
2016-06-26T00:58:58.490Z,0
2016-06-26T00:59:58.608Z,0
2016-06-26T01:00:58.726Z,0
2016-06-26T01:01:58.646Z,0
2016-06-26T01:02:58.688Z,0
2016-06-26T01:03:58.715Z,0
2016-06-26T01:05:00.079Z,0
2016-06-26T01:05:58.943Z,0
2016-06-26T01:06:59.530Z,0
2016-06-26T01:07:58.997Z,0
2016-06-26T01:08:58.944Z,0
2016-06-26T01:09:59.138Z,0
2016-06-26T01:10:59.119Z,0
2016-06-26T01:11:59.035Z,0
2016-06-26T01:12:59.267Z,0
2016-06-26T01:13:59.235Z,0
2016-06-26T01:14:59.294Z,0
2016-06-26T01:15:59.210Z,0
2016-06-26T01:16:59.259Z,0
2016-06-26T01:17:59.406Z,0
2016-06-26T01:18:59.330Z,0
2016-06-26T01:19:59.532Z,0
2016-06-26T01:20:59.420Z,0
2016-06-26T01:21:59.478Z,0
2016-06-26T01:22:59.588Z,0
2016-06-26T01:23:59.789Z,0
2016-06-26T01:24:59.754Z,0
2016-06-26T01:25:59.664Z,0
2016-06-26T01:26:59.810Z,0
2016-06-26T01:27:59.734Z,0
2016-06-26T01:28:59.890Z,0
2016-06-26T01:30:00.066Z,0
2016-06-26T01:31:00.048Z,0
2016-06-26T01:32:00.704Z,0
2016-06-26T01:32:59.954Z,0
2016-06-26T01:34:00.081Z,0
2016-06-26T01:35:00.037Z,0
2016-06-26T01:36:00.152Z,0
2016-06-26T01:37:00.184Z,0
2016-06-26T01:38:00.262Z,0
2016-06-26T01:39:00.271Z,0
2016-06-26T01:40:00.263Z,0
2016-06-26T01:41:00.236Z,0
2016-06-26T01:42:00.399Z,0
2016-06-26T01:43:00.353Z,0
2016-06-26T01:44:00.368Z,0
2016-06-26T01:45:00.660Z,0
2016-06-26T01:46:00.463Z,0
2016-06-26T01:47:00.623Z,0
2016-06-26T01:48:00.613Z,0
2016-06-26T01:49:00.598Z,0
2016-06-26T01:50:00.787Z,0
2016-06-26T01:51:00.818Z,0
2016-06-26T01:52:00.836Z,0
2016-06-26T01:53:00.739Z,0
2016-06-26T01:54:00.894Z,0
2016-06-26T01:55:00.824Z,0
2016-06-26T01:56:01.022Z,0
2016-06-26T01:57:01.102Z,0
2016-06-26T01:58:01.002Z,0
2016-06-26T01:59:01.040Z,0
2016-06-26T02:00:01.053Z,0
2016-06-26T02:01:01.170Z,0
2016-06-26T02:02:01.167Z,0
2016-06-26T02:03:01.235Z,0
2016-06-26T02:04:01.293Z,0
2016-06-26T02:05:01.276Z,0
2016-06-26T02:06:01.285Z,0
2016-06-26T02:07:01.423Z,0
2016-06-26T02:08:01.458Z,0
2016-06-26T02:09:01.520Z,0
2016-06-26T02:10:01.430Z,0
2016-06-26T02:11:01.562Z,0
2016-06-26T02:12:01.581Z,0
2016-06-26T02:13:01.613Z,0
2016-06-26T02:14:01.709Z,0
2016-06-26T02:15:01.643Z,0
2016-06-26T02:16:01.826Z,0
2016-06-26T02:17:01.734Z,0
2016-06-26T02:18:01.858Z,0
2016-06-26T02:19:01.799Z,0
2016-06-26T02:20:02.003Z,0
2016-06-26T02:21:02.015Z,0
2016-06-26T02:22:01.936Z,0
2016-06-26T02:23:02.032Z,0
2016-06-26T02:24:02.115Z,0
2016-06-26T02:25:02.129Z,0
2016-06-26T02:26:02.912Z,0
2016-06-26T02:27:02.210Z,4
2016-06-26T02:28:02.168Z,4
2016-06-26T02:29:02.350Z,4
2016-06-26T02:30:02.380Z,4
2016-06-26T02:31:02.314Z,4
2016-06-26T02:32:02.349Z,8
2016-06-26T02:33:02.481Z,4
2016-06-26T02:34:02.451Z,4
2016-06-26T02:35:02.573Z,4
2016-06-26T02:36:02.616Z,4
2016-06-26T02:37:02.526Z,4
2016-06-26T02:38:03.624Z,8
2016-06-26T02:39:02.650Z,8
2016-06-26T02:40:02.786Z,8
2016-06-26T02:41:02.844Z,8
2016-06-26T02:42:02.903Z,8
2016-06-26T02:43:02.951Z,8
2016-06-26T02:44:02.866Z,8
2016-06-26T02:45:02.879Z,12
2016-06-26T02:46:03.022Z,16
2016-06-26T02:47:02.965Z,12
2016-06-26T02:48:03.089Z,12
2016-06-26T02:49:03.053Z,16
2016-06-26T02:50:03.187Z,20
2016-06-26T02:51:03.112Z,16
2016-06-26T02:52:03.253Z,20
2016-06-26T02:53:03.313Z,20
2016-06-26T02:54:03.248Z,20
2016-06-26T02:55:03.299Z,24
2016-06-26T02:56:03.446Z,20
2016-06-26T02:57:03.440Z,24
2016-06-26T02:58:03.406Z,28
2016-06-26T02:59:03.534Z,24
2016-06-26T03:00:03.575Z,24
2016-06-26T03:01:03.652Z,20
2016-06-26T03:02:03.548Z,16
2016-06-26T03:03:03.733Z,24
2016-06-26T03:04:03.633Z,36
2016-06-26T03:05:03.674Z,32
2016-06-26T03:06:03.870Z,36
2016-06-26T03:07:03.861Z,44
2016-06-26T03:08:03.899Z,48
2016-06-26T03:09:03.958Z,48
2016-06-26T03:10:03.987Z,52
2016-06-26T03:11:03.987Z,56
2016-06-26T03:12:03.950Z,64
2016-06-26T03:13:04.114Z,60
2016-06-26T03:14:04.043Z,60
2016-06-26T03:15:04.087Z,60
2016-06-26T03:16:04.248Z,56
2016-06-26T03:17:04.267Z,60
2016-06-26T03:18:04.185Z,68
2016-06-26T03:19:04.359Z,72
2016-06-26T03:20:04.277Z,80
2016-06-26T03:21:04.691Z,80
2016-06-26T03:22:04.364Z,72
2016-06-26T03:23:04.539Z,92
2016-06-26T03:24:04.563Z,92
2016-06-26T03:25:04.697Z,104
2016-06-26T03:26:04.685Z,108
2016-06-26T03:27:04.664Z,120
2016-06-26T03:28:04.692Z,124
2016-06-26T03:29:04.647Z,132
2016-06-26T03:30:05.538Z,136
2016-06-26T03:31:04.754Z,108
2016-06-26T03:32:04.877Z,112
2016-06-26T03:33:04.937Z,172
2016-06-26T03:34:04.856Z,196
2016-06-26T03:35:04.995Z,212
2016-06-26T03:36:04.974Z,284
2016-06-26T03:37:05.093Z,320
2016-06-26T03:38:05.103Z,332
2016-06-26T03:39:05.200Z,320
2016-06-26T03:40:05.444Z,336
2016-06-26T03:41:05.120Z,380
2016-06-26T03:42:05.291Z,420
2016-06-26T03:43:05.317Z,400
2016-06-26T03:44:05.264Z,436
2016-06-26T03:45:05.483Z,564
2016-06-26T03:46:05.374Z,636
2016-06-26T03:47:05.504Z,668
2016-06-26T03:48:05.516Z,624
2016-06-26T03:49:05.579Z,600
2016-06-26T03:50:05.609Z,616
2016-06-26T03:51:05.547Z,640
2016-06-26T03:52:05.684Z,624
2016-06-26T03:53:05.603Z,616
2016-06-26T03:54:05.731Z,612
2016-06-26T03:55:05.883Z,624
2016-06-26T03:56:05.848Z,684
2016-06-26T03:57:05.768Z,768
2016-06-26T03:58:05.860Z,872
2016-06-26T03:59:05.858Z,984
2016-06-26T04:00:05.897Z,1096
2016-06-26T04:01:05.949Z,1220
2016-06-26T04:02:06.076Z,1296
2016-06-26T04:03:06.034Z,1348
2016-06-26T04:04:06.200Z,1392
2016-06-26T04:05:06.134Z,1484
2016-06-26T04:06:06.254Z,1544
2016-06-26T04:07:06.304Z,1532
2016-06-26T04:08:06.428Z,1452
2016-06-26T04:09:06.329Z,1292
2016-06-26T04:10:06.531Z,1248
2016-06-26T04:11:06.434Z,1124
2016-06-26T04:12:06.636Z,1136
2016-06-26T04:13:06.585Z,1228
2016-06-26T04:14:06.512Z,1276
2016-06-26T04:15:06.646Z,1492
2016-06-26T04:16:06.666Z,1716
2016-06-26T04:17:06.631Z,1908
2016-06-26T04:18:06.675Z,1948
2016-06-26T04:19:06.813Z,2028
2016-06-26T04:20:06.746Z,2060
2016-06-26T04:21:06.865Z,2076
2016-06-26T04:22:06.799Z,2096
2016-06-26T04:23:07.030Z,2120
2016-06-26T04:24:06.964Z,2116
2016-06-26T04:25:06.932Z,2120
2016-06-26T04:26:06.975Z,2108
2016-06-26T04:27:07.041Z,2088
2016-06-26T04:28:07.181Z,2040
2016-06-26T04:29:07.051Z,1968
2016-06-26T04:30:07.239Z,1988
2016-06-26T04:31:07.178Z,2028
2016-06-26T04:32:07.342Z,1988
2016-06-26T04:33:07.366Z,1908
2016-06-26T04:34:07.922Z,1892
2016-06-26T04:35:07.416Z,1936
2016-06-26T04:36:07.482Z,2000
2016-06-26T04:37:07.503Z,1984
2016-06-26T04:38:07.508Z,1912
2016-06-26T04:39:07.498Z,1832
2016-06-26T04:40:08.306Z,1736
2016-06-26T04:41:07.556Z,1676
2016-06-26T04:42:07.735Z,1744
2016-06-26T04:43:07.687Z,1876
2016-06-26T04:44:07.784Z,2012
2016-06-26T04:45:07.867Z,2000
2016-06-26T04:46:07.797Z,2024
2016-06-26T04:47:07.924Z,2096
2016-06-26T04:48:07.966Z,2124
2016-06-26T04:49:07.910Z,2104
2016-06-26T04:50:08.024Z,2028
2016-06-26T04:51:08.003Z,1932
2016-06-26T04:52:08.126Z,1872
2016-06-26T04:53:08.177Z,1892
2016-06-26T04:54:08.234Z,1968
2016-06-26T04:55:08.135Z,2024
2016-06-26T04:56:08.975Z,2052
2016-06-26T04:57:08.229Z,2076
2016-06-26T04:58:08.413Z,2196
2016-06-26T04:59:08.465Z,2548
2016-06-26T05:00:08.449Z,2940
2016-06-26T05:01:08.438Z,3076
2016-06-26T05:02:08.554Z,2920
2016-06-26T05:03:08.450Z,2812
2016-06-26T05:04:08.611Z,3104
2016-06-26T05:05:08.543Z,3504
2016-06-26T05:06:08.674Z,3840
2016-06-26T05:07:08.781Z,3456
2016-06-26T05:08:08.748Z,2920
2016-06-26T05:09:08.730Z,2556
2016-06-26T05:10:08.770Z,2460
2016-06-26T05:11:08.895Z,2408
2016-06-26T05:12:09.026Z,2400
2016-06-26T05:13:08.983Z,2476
2016-06-26T05:14:08.899Z,2624
2016-06-26T05:15:09.059Z,2840
2016-06-26T05:16:08.975Z,2968
2016-06-26T05:17:09.140Z,2816
2016-06-26T05:18:09.207Z,2872
2016-06-26T05:19:09.123Z,3016
2016-06-26T05:20:09.334Z,3204
2016-06-26T05:21:09.201Z,2972
2016-06-26T05:22:09.294Z,2536
2016-06-26T05:23:09.311Z,2416
2016-06-26T05:24:09.422Z,2364
2016-06-26T05:25:09.515Z,2148
2016-06-26T05:26:09.627Z,2128
2016-06-26T05:27:09.530Z,2128
2016-06-26T05:28:09.620Z,2160
2016-06-26T05:29:09.523Z,2452
2016-06-26T05:30:09.682Z,2968
2016-06-26T05:31:10.298Z,3188
2016-06-26T05:32:09.784Z,3048
2016-06-26T05:33:09.749Z,2408
2016-06-26T05:34:09.841Z,2236
2016-06-26T05:35:09.746Z,2672
2016-06-26T05:36:09.834Z,3656
2016-06-26T05:37:09.864Z,4856
2016-06-26T05:38:09.933Z,5540
2016-06-26T05:39:09.910Z,5640
2016-06-26T05:40:10.138Z,5420
2016-06-26T05:41:10.117Z,5032
2016-06-26T05:42:10.228Z,4496
2016-06-26T05:43:10.062Z,3832
2016-06-26T05:44:10.238Z,3852
2016-06-26T05:45:10.150Z,4380
2016-06-26T05:46:10.210Z,4456
2016-06-26T05:47:10.327Z,4468
2016-06-26T05:48:10.418Z,4588
2016-06-26T05:49:10.366Z,4916
2016-06-26T05:50:10.469Z,5372
2016-06-26T05:51:10.482Z,4892
2016-06-26T05:52:10.494Z,5588
2016-06-26T05:53:10.658Z,5944
2016-06-26T05:54:10.630Z,5580
2016-06-26T05:55:10.610Z,4940
2016-06-26T05:56:10.606Z,4480
2016-06-26T05:57:10.654Z,4464
2016-06-26T05:58:10.787Z,4188
2016-06-26T05:59:10.876Z,4240
2016-06-26T06:00:10.926Z,4516
2016-06-26T06:01:10.975Z,4144
2016-06-26T06:02:10.860Z,4112
2016-06-26T06:03:10.929Z,4360
2016-06-26T06:04:11.050Z,4304
2016-06-26T06:05:11.122Z,4024
2016-06-26T06:06:11.093Z,3968
2016-06-26T06:07:11.057Z,4360
2016-06-26T06:08:11.213Z,5208
2016-06-26T06:09:11.249Z,5880
2016-06-26T06:10:11.317Z,5432
2016-06-26T06:11:11.338Z,6868
2016-06-26T06:12:11.426Z,6112
2016-06-26T06:13:11.288Z,6648
2016-06-26T06:14:11.389Z,5568
2016-06-26T06:15:11.479Z,5160
2016-06-26T06:16:11.471Z,5652
2016-06-26T06:17:11.627Z,6140
2016-06-26T06:18:11.547Z,5972
2016-06-26T06:19:11.662Z,5352
2016-06-26T06:20:11.677Z,4512
2016-06-26T06:21:12.429Z,4144
2016-06-26T06:22:11.788Z,4548
2016-06-26T06:23:11.798Z,4424
2016-06-26T06:24:11.867Z,4128
2016-06-26T06:25:11.829Z,3680
2016-06-26T06:26:12.026Z,3640
2016-06-26T06:27:12.010Z,3960
2016-06-26T06:28:11.948Z,3968
2016-06-26T06:29:12.207Z,4100
2016-06-26T06:30:12.145Z,4176
2016-06-26T06:31:12.093Z,4512
2016-06-26T06:32:12.190Z,4832
2016-06-26T06:33:12.150Z,5092
2016-06-26T06:34:12.291Z,5724
2016-06-26T06:35:12.330Z,6120
2016-06-26T06:36:12.537Z,5116
2016-06-26T06:37:12.400Z,4568
2016-06-26T06:38:12.337Z,4528
2016-06-26T06:39:12.519Z,4828
2016-06-26T06:40:12.660Z,5092
2016-06-26T06:41:12.467Z,5488
2016-06-26T06:42:12.632Z,6008
2016-06-26T06:43:12.566Z,6900
2016-06-26T06:44:12.668Z,7612
2016-06-26T06:45:12.617Z,9456
2016-06-26T06:46:12.694Z,13512
2016-06-26T06:47:12.740Z,11404
2016-06-26T06:48:12.909Z,9752
2016-06-26T06:49:12.931Z,8060
2016-06-26T06:50:12.923Z,5360
2016-06-26T06:51:12.996Z,4920
2016-06-26T06:52:13.019Z,4368
2016-06-26T06:53:12.954Z,4460
2016-06-26T06:54:13.105Z,4644
2016-06-26T06:55:13.035Z,4340
2016-06-26T06:56:13.816Z,4568
2016-06-26T06:57:13.228Z,4552
2016-06-26T06:58:13.158Z,4516
2016-06-26T06:59:13.326Z,4760
2016-06-26T07:00:13.250Z,5144
2016-06-26T07:01:14.154Z,4948
2016-06-26T07:02:13.345Z,4716
2016-06-26T07:03:13.440Z,4976
2016-06-26T07:04:13.478Z,5148
2016-06-26T07:05:13.514Z,5504
2016-06-26T07:06:13.632Z,5816
2016-06-26T07:07:13.629Z,5824
2016-06-26T07:08:13.682Z,6504
2016-06-26T07:09:13.631Z,6744
2016-06-26T07:10:13.766Z,7300
2016-06-26T07:11:13.735Z,7896
2016-06-26T07:12:13.850Z,7568
2016-06-26T07:13:13.778Z,7568
2016-06-26T07:14:13.958Z,8376
2016-06-26T07:15:13.897Z,9632
2016-06-26T07:16:13.997Z,10952
2016-06-26T07:17:14.052Z,10848
2016-06-26T07:18:14.747Z,10300
2016-06-26T07:19:14.173Z,10708
2016-06-26T07:20:14.176Z,12260
2016-06-26T07:21:14.192Z,12944
2016-06-26T07:22:14.143Z,12808
2016-06-26T07:23:14.296Z,13920
2016-06-26T07:24:14.279Z,13052
2016-06-26T07:25:14.432Z,9988
2016-06-26T07:26:14.312Z,8740
2016-06-26T07:27:15.218Z,8852
2016-06-26T07:28:14.546Z,9056
2016-06-26T07:29:14.558Z,9756
2016-06-26T07:30:14.527Z,11140
2016-06-26T07:31:14.649Z,12280
2016-06-26T07:32:14.586Z,12308
2016-06-26T07:33:14.733Z,12192
2016-06-26T07:34:14.724Z,12500
2016-06-26T07:35:14.772Z,10668
2016-06-26T07:36:15.613Z,8812
2016-06-26T07:37:14.927Z,8808
2016-06-26T07:38:14.842Z,9444
2016-06-26T07:39:14.914Z,10496
2016-06-26T07:40:14.930Z,11392
2016-06-26T07:41:14.962Z,12064
2016-06-26T07:42:15.173Z,10876
2016-06-26T07:43:15.085Z,10788
2016-06-26T07:44:15.224Z,12568
2016-06-26T07:45:15.145Z,14988
2016-06-26T07:46:15.301Z,11924
2016-06-26T07:47:15.222Z,8944
2016-06-26T07:48:15.344Z,7772
2016-06-26T07:49:15.455Z,8828
2016-06-26T07:50:15.367Z,10032
2016-06-26T07:51:15.518Z,10808
2016-06-26T07:52:15.568Z,9116
2016-06-26T07:53:15.506Z,8424
2016-06-26T07:54:15.630Z,7396
2016-06-26T07:55:16.265Z,6516
2016-06-26T07:56:15.735Z,6216
2016-06-26T07:57:16.527Z,6260
2016-06-26T07:58:16.634Z,6324
2016-06-26T07:59:15.763Z,6432
2016-06-26T08:00:15.891Z,6420
2016-06-26T08:01:15.893Z,6484
2016-06-26T08:02:16.006Z,6848
2016-06-26T08:03:15.987Z,7556
2016-06-26T08:04:15.988Z,9084
2016-06-26T08:05:16.142Z,10412
2016-06-26T08:06:16.055Z,11648
2016-06-26T08:07:16.208Z,13368
2016-06-26T08:08:16.256Z,15136
2016-06-26T08:09:16.184Z,15548
2016-06-26T08:10:16.323Z,14036
2016-06-26T08:11:17.040Z,10608
2016-06-26T08:12:16.298Z,8896
2016-06-26T08:13:16.514Z,8892
2016-06-26T08:14:16.462Z,8816
2016-06-26T08:15:16.442Z,8748
2016-06-26T08:16:16.598Z,8088
2016-06-26T08:17:16.569Z,7480
2016-06-26T08:18:16.561Z,7624
2016-06-26T08:19:16.696Z,7844
2016-06-26T08:20:17.522Z,8312
2016-06-26T08:21:16.724Z,9732
2016-06-26T08:22:16.713Z,11172
2016-06-26T08:23:16.883Z,12828
2016-06-26T08:24:16.936Z,14544
2016-06-26T08:25:16.921Z,14480
2016-06-26T08:26:17.014Z,12920
2016-06-26T08:27:16.956Z,11472
2016-06-26T08:28:17.101Z,11040
2016-06-26T08:29:17.151Z,11576
2016-06-26T08:30:17.099Z,10680
2016-06-26T08:31:17.125Z,8616
2016-06-26T08:32:17.142Z,8572
2016-06-26T08:33:17.224Z,10340
2016-06-26T08:34:17.293Z,13744
2016-06-26T08:35:17.350Z,15972
2016-06-26T08:36:17.439Z,16244
2016-06-26T08:37:17.412Z,15496
2016-06-26T08:38:17.542Z,14212
2016-06-26T08:39:17.454Z,13580
2016-06-26T08:40:17.626Z,13280
2016-06-26T08:41:17.756Z,11452
2016-06-26T08:42:17.626Z,9060
2016-06-26T08:43:17.766Z,8920
2016-06-26T08:44:17.811Z,10452
2016-06-26T08:45:17.734Z,11068
2016-06-26T08:46:17.915Z,10588
2016-06-26T08:47:17.870Z,10636
2016-06-26T08:48:17.882Z,11208
2016-06-26T08:49:18.013Z,12332
2016-06-26T08:50:18.051Z,13280
2016-06-26T08:51:18.107Z,13900
2016-06-26T08:52:18.145Z,13728
2016-06-26T08:53:18.070Z,13176
2016-06-26T08:54:18.258Z,14176
2016-06-26T08:55:18.160Z,13484
2016-06-26T08:56:18.311Z,12144
2016-06-26T08:57:18.229Z,12664
2016-06-26T08:58:18.357Z,12472
2016-06-26T08:59:18.354Z,11024
2016-06-26T09:00:18.527Z,11068
2016-06-26T09:01:18.481Z,11140
2016-06-26T09:02:18.517Z,11640
2016-06-26T09:03:18.655Z,13696
2016-06-26T09:04:18.661Z,16452
2016-06-26T09:05:18.735Z,18240
2016-06-26T09:06:18.642Z,18144
2016-06-26T09:07:18.707Z,17440
2016-06-26T09:08:18.837Z,13756
2016-06-26T09:09:18.914Z,13384
2016-06-26T09:10:18.930Z,12688
2016-06-26T09:11:18.853Z,11788
2016-06-26T09:12:19.005Z,10828
2016-06-26T09:13:18.976Z,9764
2016-06-26T09:14:19.119Z,8120
2016-06-26T09:15:19.027Z,7308
2016-06-26T09:16:19.103Z,7328
2016-06-26T09:17:19.154Z,8072
2016-06-26T09:18:19.274Z,8620
2016-06-26T09:19:19.216Z,9376
2016-06-26T09:20:19.363Z,10184
2016-06-26T09:21:19.309Z,10808
2016-06-26T09:22:19.463Z,10472
2016-06-26T09:23:19.384Z,9840
2016-06-26T09:24:19.547Z,9400
2016-06-26T09:25:20.336Z,10276
2016-06-26T09:26:19.624Z,10588
2016-06-26T09:27:19.708Z,11512
2016-06-26T09:28:19.737Z,12856
2016-06-26T09:29:19.780Z,15048
2016-06-26T09:30:19.804Z,17984
2016-06-26T09:31:19.789Z,17984
2016-06-26T09:32:19.775Z,16288
2016-06-26T09:33:19.978Z,14552
2016-06-26T09:34:19.970Z,13748
2016-06-26T09:35:19.949Z,13032
2016-06-26T09:36:20.060Z,12276
2016-06-26T09:37:20.164Z,12356
2016-06-26T09:38:20.042Z,13416
2016-06-26T09:39:20.256Z,14448
2016-06-26T09:40:20.214Z,14552
2016-06-26T09:41:20.192Z,11388
2016-06-26T09:42:20.302Z,9792
2016-06-26T09:43:20.260Z,9520
2016-06-26T09:44:20.487Z,9936
2016-06-26T09:45:20.391Z,11324
2016-06-26T09:46:20.441Z,13672
2016-06-26T09:47:20.555Z,17472
2016-06-26T09:48:20.613Z,19936
2016-06-26T09:49:21.310Z,18624
2016-06-26T09:50:20.674Z,17388
2016-06-26T09:51:21.255Z,18240
2016-06-26T09:52:20.757Z,18656
2016-06-26T09:53:20.678Z,20128
2016-06-26T09:54:20.828Z,20288
2016-06-26T09:55:20.905Z,18912
2016-06-26T09:56:20.826Z,19648
2016-06-26T09:57:20.991Z,21632
2016-06-26T09:58:20.903Z,21536
2016-06-26T09:59:21.090Z,21088
2016-06-26T10:00:21.800Z,17556
2016-06-26T10:01:21.075Z,16848
2016-06-26T10:02:21.189Z,15260
2016-06-26T10:03:21.371Z,13172
2016-06-26T10:04:21.219Z,12844
2016-06-26T10:05:21.359Z,13264
2016-06-26T10:06:21.418Z,14788
2016-06-26T10:07:21.457Z,16332
2016-06-26T10:08:21.399Z,18624
2016-06-26T10:09:21.456Z,20288
2016-06-26T10:10:21.649Z,19936
2016-06-26T10:11:21.599Z,18720
2016-06-26T10:12:21.531Z,18624
2016-06-26T10:13:21.724Z,20064
2016-06-26T10:14:21.749Z,22016
2016-06-26T10:15:21.818Z,22368
2016-06-26T10:16:21.875Z,21152
2016-06-26T10:17:21.905Z,18400
2016-06-26T10:18:21.827Z,17284
2016-06-26T10:19:21.963Z,18432
2016-06-26T10:20:22.670Z,22368
2016-06-26T10:21:22.067Z,19360
2016-06-26T10:22:21.999Z,16908
2016-06-26T10:23:22.208Z,16780
2016-06-26T10:24:22.077Z,17076
2016-06-26T10:25:22.234Z,15452
2016-06-26T10:26:22.180Z,14204
2016-06-26T10:27:23.030Z,14172
2016-06-26T10:28:22.402Z,15084
2016-06-26T10:29:22.872Z,15972
2016-06-26T10:30:22.483Z,16620
2016-06-26T10:31:22.440Z,18112
2016-06-26T10:32:22.563Z,19136
2016-06-26T10:33:22.595Z,19232
2016-06-26T10:34:22.673Z,18976
2016-06-26T10:35:22.745Z,20288
2016-06-26T10:36:22.711Z,22208
2016-06-26T10:37:23.594Z,24320
2016-06-26T10:38:23.415Z,24960
2016-06-26T10:39:22.883Z,23104
2016-06-26T10:40:22.830Z,22720
2016-06-26T10:41:22.974Z,19296
2016-06-26T10:42:22.937Z,92896
2016-06-26T10:43:23.071Z,110912
2016-06-26T10:44:23.122Z,123616
2016-06-26T10:45:23.178Z,124864
2016-06-26T10:46:23.119Z,79520
2016-06-26T10:47:23.276Z,123456
2016-06-26T10:48:23.308Z,125408
2016-06-26T10:49:23.238Z,117280
2016-06-26T10:50:23.437Z,113888
2016-06-26T10:51:23.447Z,20256
2016-06-26T10:52:23.473Z,13764
2016-06-26T10:53:23.514Z,13976
2016-06-26T10:54:24.189Z,114432
2016-06-26T10:55:23.691Z,116480
2016-06-26T10:56:23.647Z,110592
2016-06-26T10:57:23.758Z,101568
2016-06-26T10:58:23.719Z,93184
2016-06-26T10:59:24.729Z,87200
2016-06-26T11:00:23.792Z,87648
2016-06-26T11:01:23.935Z,92352
2016-06-26T11:02:23.929Z,97120
2016-06-26T11:03:23.954Z,100608
2016-06-26T11:04:24.128Z,107776
2016-06-26T11:05:24.144Z,110496
2016-06-26T11:06:24.135Z,113184
2016-06-26T11:07:24.280Z,112224
2016-06-26T11:08:24.323Z,112672
2016-06-26T11:09:24.397Z,110880
2016-06-26T11:10:24.316Z,109920
2016-06-26T11:11:24.469Z,106624
2016-06-26T11:12:24.424Z,109920
2016-06-26T11:13:24.558Z,110176
2016-06-26T11:14:24.636Z,109440
2016-06-26T11:15:24.614Z,109088
2016-06-26T11:16:24.647Z,111904
2016-06-26T11:17:24.822Z,112704
2016-06-26T11:18:24.790Z,104352
2016-06-26T11:19:24.943Z,122304
2016-06-26T11:20:25.943Z,119584
2016-06-26T11:21:25.215Z,112832
2016-06-26T11:22:25.121Z,106976
2016-06-26T11:23:25.208Z,105952
2016-06-26T11:24:26.526Z,107680
2016-06-26T11:25:25.184Z,117152
2016-06-26T11:26:25.370Z,125504
2016-06-26T11:27:25.401Z,131840
2016-06-26T11:28:25.432Z,135360
2016-06-26T11:29:26.235Z,132672
2016-06-26T11:30:25.453Z,125984
2016-06-26T11:31:25.518Z,93344
2016-06-26T11:32:25.676Z,97568
2016-06-26T11:33:25.666Z,107232
2016-06-26T11:34:25.854Z,119424
2016-06-26T11:35:25.764Z,32608
2016-06-26T11:36:25.946Z,148288
2016-06-26T11:37:25.913Z,156608
2016-06-26T11:38:25.954Z,159968
2016-06-26T11:39:26.131Z,149184
2016-06-26T11:40:26.180Z,142208
2016-06-26T11:41:26.131Z,148800
2016-06-26T11:42:26.450Z,150432
2016-06-26T11:43:26.421Z,156448
2016-06-26T11:44:26.419Z,161248
2016-06-26T11:45:26.373Z,158752
2016-06-26T11:46:26.554Z,106400
2016-06-26T11:47:26.482Z,47680
2016-06-26T11:48:26.677Z,152544
2016-06-26T11:49:27.430Z,153376
2016-06-26T11:50:28.324Z,154752
2016-06-26T11:51:26.846Z,99296
2016-06-26T11:52:26.910Z,73408
2016-06-26T11:53:26.858Z,149888
2016-06-26T11:54:27.074Z,144480
2016-06-26T11:55:27.100Z,141152
2016-06-26T11:56:27.177Z,136512
2016-06-26T11:57:27.202Z,139552
2016-06-26T11:58:27.223Z,142720
2016-06-26T11:59:28.010Z,144896
2016-06-26T12:00:28.234Z,153376
2016-06-26T12:01:28.209Z,148256
2016-06-26T12:02:27.419Z,142880
2016-06-26T12:03:27.644Z,131648
2016-06-26T12:04:27.571Z,103744
2016-06-26T12:05:27.606Z,114144
2016-06-26T12:06:27.791Z,98496
2016-06-26T12:07:27.759Z,147456
2016-06-26T12:08:27.945Z,154752
2016-06-26T12:09:27.946Z,104576
2016-06-26T12:10:27.967Z,77760
2016-06-26T12:11:28.119Z,122912
2016-06-26T12:12:28.099Z,145696
2016-06-26T12:13:28.995Z,64128
2016-06-26T12:14:28.186Z,68288
2016-06-26T12:15:28.325Z,105664
2016-06-26T12:16:28.343Z,126656
2016-06-26T12:17:28.477Z,65888
2016-06-26T12:18:28.455Z,151680
2016-06-26T12:19:28.603Z,141952
2016-06-26T12:20:28.532Z,139232
2016-06-26T12:21:28.709Z,137280
2016-06-26T12:22:29.403Z,139168
2016-06-26T12:23:28.707Z,142624
2016-06-26T12:24:29.868Z,144608
2016-06-26T12:25:28.834Z,142048
2016-06-26T12:26:29.085Z,140288
2016-06-26T12:27:29.175Z,134432
2016-06-26T12:28:29.130Z,131520
2016-06-26T12:29:29.221Z,132992
2016-06-26T12:30:29.170Z,141600
2016-06-26T12:31:30.087Z,69952
2016-06-26T12:32:29.283Z,26816
2016-06-26T12:33:29.513Z,26688
2016-06-26T12:34:29.514Z,45856
2016-06-26T12:35:29.474Z,130816
2016-06-26T12:36:29.505Z,129824
2016-06-26T12:37:30.437Z,131008
2016-06-26T12:38:30.434Z,137632
2016-06-26T12:39:30.529Z,145248
2016-06-26T12:40:29.925Z,128544
2016-06-26T12:41:31.435Z,52704
2016-06-26T12:42:30.078Z,41760
2016-06-26T12:43:30.086Z,131232
2016-06-26T12:44:31.007Z,35328
2016-06-26T12:45:30.189Z,38080
2016-06-26T12:46:31.856Z,110272
2016-06-26T12:47:30.264Z,142048
2016-06-26T12:48:31.130Z,139680
2016-06-26T12:49:30.989Z,137600
2016-06-26T12:50:31.282Z,77376
2016-06-26T12:51:31.256Z,30464
2016-06-26T12:52:30.479Z,135936
2016-06-26T12:53:30.646Z,78688
2016-06-26T12:54:31.419Z,128768
2016-06-26T12:55:30.664Z,39584
2016-06-26T12:56:30.740Z,44064
2016-06-26T12:57:31.030Z,55168
2016-06-26T12:58:30.836Z,62208
2016-06-26T12:59:31.675Z,63424
2016-06-26T13:00:31.690Z,37056
2016-06-26T13:01:32.687Z,82304
2016-06-26T13:02:31.802Z,80064
2016-06-26T13:03:31.213Z,76544
2016-06-26T13:04:31.992Z,38912
2016-06-26T13:05:32.156Z,40320
2016-06-26T13:06:31.993Z,47456
2016-06-26T13:07:31.482Z,45984
2016-06-26T13:08:31.498Z,47744
2016-06-26T13:09:32.355Z,37920
2016-06-26T13:10:31.618Z,36704
2016-06-26T13:11:32.351Z,43680
2016-06-26T13:12:32.547Z,46848
2016-06-26T13:13:31.675Z,73312
2016-06-26T13:14:31.843Z,75584
2016-06-26T13:15:31.766Z,54304
2016-06-26T13:16:31.830Z,86336
2016-06-26T13:17:32.001Z,104480
2016-06-26T13:18:32.637Z,79040
2016-06-26T13:19:32.090Z,146560
2016-06-26T13:20:32.805Z,98560
2016-06-26T13:21:32.258Z,78592
2016-06-26T13:22:32.915Z,45312
2016-06-26T13:23:33.052Z,80384
2016-06-26T13:24:32.355Z,131264
2016-06-26T13:25:33.173Z,47840